sensor_id;sensor_type;location;lat;lon;timestamp;pressure;altitude;pressure_sealevel;temperature;humidity
54854;BME280;40747;49.480;8.658;2022-12-08T00:00:20;100008.28;;;3.44;100.00
54854;BME280;40747;49.480;8.658;2022-12-08T00:02:45;100004.84;;;3.39;100.00
54854;BME280;40747;49.480;8.658;2022-12-08T00:05:11;99999.63;;;3.36;100.00
54854;BME280;40747;49.480;8.658;2022-12-08T00:07:54;99997.88;;;3.43;100.00
54854;BME280;40747;49.480;8.658;2022-12-08T00:10:41;99997.84;;;3.46;100.00
54854;BME280;40747;49.480;8.658;2022-12-08T00:13:07;99990.91;;;3.48;100.00
54854;BME280;40747;49.480;8.658;2022-12-08T00:15:32;99989.16;;;3.47;100.00
54854;BME280;40747;49.480;8.658;2022-12-08T00:17:57;99989.19;;;3.46;100.00
54854;BME280;40747;49.480;8.658;2022-12-08T00:20:23;99976.22;;;3.38;100.00
54854;BME280;40747;49.480;8.658;2022-12-08T00:22:48;99979.72;;;3.35;100.00
54854;BME280;40747;49.480;8.658;2022-12-08T00:25:13;99977.09;;;3.35;100.00
54854;BME280;40747;49.480;8.658;2022-12-08T00:27:38;99993.53;;;3.39;100.00
54854;BME280;40747;49.480;8.658;2022-12-08T00:30:05;99975.41;;;3.28;100.00
54854;BME280;40747;49.480;8.658;2022-12-08T00:32:30;99977.09;;;3.32;100.00
54854;BME280;40747;49.480;8.658;2022-12-08T00:34:56;99968.41;;;3.36;100.00
54854;BME280;40747;49.480;8.658;2022-12-08T00:37:21;99974.44;;;3.43;100.00
54854;BME280;40747;49.480;8.658;2022-12-08T00:39:46;99975.25;;;3.50;100.00
54854;BME280;40747;49.480;8.658;2022-12-08T00:42:12;99972.69;;;3.43;100.00
54854;BME280;40747;49.480;8.658;2022-12-08T00:44:38;99968.31;;;3.49;100.00
54854;BME280;40747;49.480;8.658;2022-12-08T00:47:03;99970.13;;;3.40;100.00
54854;BME280;40747;49.480;8.658;2022-12-08T00:49:29;99963.28;;;3.21;100.00
54854;BME280;40747;49.480;8.658;2022-12-08T00:51:54;99959.88;;;3.13;100.00
54854;BME280;40747;49.480;8.658;2022-12-08T00:54:20;99960.81;;;3.04;100.00
54854;BME280;40747;49.480;8.658;2022-12-08T00:56:47;99963.38;;;3.10;100.00
54854;BME280;40747;49.480;8.658;2022-12-08T00:59:12;99937.47;;;2.93;100.00
54854;BME280;40747;49.480;8.658;2022-12-08T01:01:37;99959.09;;;2.97;100.00
54854;BME280;40747;49.480;8.658;2022-12-08T01:04:04;99946.09;;;2.98;100.00
54854;BME280;40747;49.480;8.658;2022-12-08T01:06:30;99958.19;;;3.05;100.00
54854;BME280;40747;49.480;8.658;2022-12-08T01:08:56;99956.47;;;3.03;100.00
54854;BME280;40747;49.480;8.658;2022-12-08T01:11:21;99952.13;;;3.06;100.00
54854;BME280;40747;49.480;8.658;2022-12-08T01:13:46;99956.56;;;2.86;100.00
54854;BME280;40747;49.480;8.658;2022-12-08T01:16:24;99955.66;;;2.93;100.00
54854;BME280;40747;49.480;8.658;2022-12-08T01:18:50;99955.66;;;2.93;100.00
54854;BME280;40747;49.480;8.658;2022-12-08T01:21:15;99953.09;;;2.84;100.00
54854;BME280;40747;49.480;8.658;2022-12-08T01:23:41;99921.94;;;2.70;100.00
54854;BME280;40747;49.480;8.658;2022-12-08T01:26:08;99951.41;;;2.73;100.00
54854;BME280;40747;49.480;8.658;2022-12-08T01:28:34;99952.28;;;2.77;100.00
54854;BME280;40747;49.480;8.658;2022-12-08T01:31:00;99948.00;;;2.65;100.00
54854;BME280;40747;49.480;8.658;2022-12-08T01:33:25;99947.13;;;2.61;100.00
54854;BME280;40747;49.480;8.658;2022-12-08T01:35:51;99945.38;;;2.62;100.00
54854;BME280;40747;49.480;8.658;2022-12-08T01:38:16;99942.75;;;2.68;100.00
54854;BME280;40747;49.480;8.658;2022-12-08T01:40:42;99946.28;;;2.61;100.00
54854;BME280;40747;49.480;8.658;2022-12-08T01:43:16;99947.13;;;2.68;100.00
54854;BME280;40747;49.480;8.658;2022-12-08T01:45:41;99946.22;;;2.73;100.00
54854;BME280;40747;49.480;8.658;2022-12-08T01:48:12;99954.91;;;2.68;100.00
54854;BME280;40747;49.480;8.658;2022-12-08T01:50:40;99937.59;;;2.65;100.00
54854;BME280;40747;49.480;8.658;2022-12-08T01:53:28;99938.47;;;2.61;100.00
54854;BME280;40747;49.480;8.658;2022-12-08T01:56:06;99931.50;;;2.69;100.00
54854;BME280;40747;49.480;8.658;2022-12-08T01:58:39;99932.41;;;2.65;100.00
54854;BME280;40747;49.480;8.658;2022-12-08T02:01:06;99903.84;;;2.53;100.00
54854;BME280;40747;49.480;8.658;2022-12-08T02:03:38;99902.97;;;2.55;100.00
54854;BME280;40747;49.480;8.658;2022-12-08T02:06:06;99920.28;;;2.61;100.00
54854;BME280;40747;49.480;8.658;2022-12-08T02:08:32;99915.00;;;2.72;100.00
54854;BME280;40747;49.480;8.658;2022-12-08T02:10:58;99904.63;;;2.67;100.00
54854;BME280;40747;49.480;8.658;2022-12-08T02:13:24;99909.00;;;2.65;100.00
54854;BME280;40747;49.480;8.658;2022-12-08T02:16:06;99910.72;;;2.68;100.00
54854;BME280;40747;49.480;8.658;2022-12-08T02:18:51;99904.66;;;2.62;100.00
54854;BME280;40747;49.480;8.658;2022-12-08T02:21:27;99902.06;;;2.58;100.00
54854;BME280;40747;49.480;8.658;2022-12-08T02:24:07;99908.13;;;2.61;100.00
54854;BME280;40747;49.480;8.658;2022-12-08T02:36:04;99902.94;;;2.60;100.00
54854;BME280;40747;49.480;8.658;2022-12-08T02:38:34;99906.34;;;2.74;100.00
54854;BME280;40747;49.480;8.658;2022-12-08T02:41:29;99898.66;;;2.50;100.00
54854;BME280;40747;49.480;8.658;2022-12-08T02:44:01;99896.06;;;2.45;100.00
54854;BME280;40747;49.480;8.658;2022-12-08T02:46:36;99899.59;;;2.33;100.00
54854;BME280;40747;49.480;8.658;2022-12-08T02:49:04;99890.88;;;2.45;100.00
54854;BME280;40747;49.480;8.658;2022-12-08T02:51:30;99889.09;;;2.56;100.00
54854;BME280;40747;49.480;8.658;2022-12-08T02:53:55;99885.63;;;2.56;100.00
54854;BME280;40747;49.480;8.658;2022-12-08T02:59:12;99876.06;;;2.62;100.00
54854;BME280;40747;49.480;8.658;2022-12-08T03:04:37;99882.19;;;2.43;100.00
54854;BME280;40747;49.480;8.658;2022-12-08T03:07:18;99878.78;;;2.39;100.00
54854;BME280;40747;49.480;8.658;2022-12-08T03:09:51;99870.97;;;2.38;100.00
54854;BME280;40747;49.480;8.658;2022-12-08T03:12:28;99890.03;;;2.44;100.00
54854;BME280;40747;49.480;8.658;2022-12-08T03:14:58;99879.63;;;2.35;100.00
54854;BME280;40747;49.480;8.658;2022-12-08T03:17:27;99877.03;;;2.40;100.00
54854;BME280;40747;49.480;8.658;2022-12-08T03:19:57;99873.56;;;2.36;100.00
54854;BME280;40747;49.480;8.658;2022-12-08T03:22:26;99875.28;;;2.39;100.00
54854;BME280;40747;49.480;8.658;2022-12-08T03:24:52;99864.03;;;2.40;100.00
54854;BME280;40747;49.480;8.658;2022-12-08T03:27:21;99870.88;;;2.61;100.00
54854;BME280;40747;49.480;8.658;2022-12-08T03:29:50;99873.50;;;2.55;100.00
54854;BME280;40747;49.480;8.658;2022-12-08T03:32:36;99873.50;;;2.52;100.00
54854;BME280;40747;49.480;8.658;2022-12-08T03:35:07;99860.53;;;2.53;100.00
54854;BME280;40747;49.480;8.658;2022-12-08T03:37:37;99863.09;;;2.52;100.00
54854;BME280;40747;49.480;8.658;2022-12-08T03:40:05;99863.13;;;2.49;100.00
54854;BME280;40747;49.480;8.658;2022-12-08T03:42:31;99858.84;;;2.40;100.00
54854;BME280;40747;49.480;8.658;2022-12-08T03:44:56;99855.34;;;2.42;100.00
54854;BME280;40747;49.480;8.658;2022-12-08T03:47:22;99844.16;;;2.31;100.00
54854;BME280;40747;49.480;8.658;2022-12-08T03:49:47;99844.16;;;2.34;100.00
54854;BME280;40747;49.480;8.658;2022-12-08T03:52:12;99851.84;;;2.51;100.00
54854;BME280;40747;49.480;8.658;2022-12-08T03:54:38;99845.84;;;2.40;100.00
54854;BME280;40747;49.480;8.658;2022-12-08T03:57:03;99846.75;;;2.31;100.00
54854;BME280;40747;49.480;8.658;2022-12-08T03:59:28;99838.03;;;2.44;100.00
54854;BME280;40747;49.480;8.658;2022-12-08T04:01:53;99837.13;;;2.45;100.00
54854;BME280;40747;49.480;8.658;2022-12-08T04:04:19;99824.25;;;2.25;100.00
54854;BME280;40747;49.480;8.658;2022-12-08T04:06:44;99815.66;;;2.08;100.00
54854;BME280;40747;49.480;8.658;2022-12-08T04:09:10;99823.44;;;2.11;100.00
54854;BME280;40747;49.480;8.658;2022-12-08T04:11:35;99829.50;;;2.11;100.00
54854;BME280;40747;49.480;8.658;2022-12-08T04:14:00;99825.22;;;2.07;100.00
54854;BME280;40747;49.480;8.658;2022-12-08T04:16:25;99824.28;;;2.19;100.00
54854;BME280;40747;49.480;8.658;2022-12-08T04:18:52;99819.91;;;2.27;100.00
54854;BME280;40747;49.480;8.658;2022-12-08T04:21:17;99821.63;;;2.30;100.00
54854;BME280;40747;49.480;8.658;2022-12-08T04:23:43;99815.59;;;2.26;100.00
54854;BME280;40747;49.480;8.658;2022-12-08T04:26:09;99813.06;;;2.12;100.00
54854;BME280;40747;49.480;8.658;2022-12-08T04:28:34;99813.13;;;1.97;100.00
54854;BME280;40747;49.480;8.658;2022-12-08T04:31:00;99800.09;;;2.00;100.00
54854;BME280;40747;49.480;8.658;2022-12-08T04:33:25;99803.56;;;2.02;100.00
54854;BME280;40747;49.480;8.658;2022-12-08T04:35:51;99803.53;;;2.08;100.00
54854;BME280;40747;49.480;8.658;2022-12-08T04:38:16;99805.25;;;2.16;100.00
54854;BME280;40747;49.480;8.658;2022-12-08T04:40:41;99800.06;;;2.09;100.00
54854;BME280;40747;49.480;8.658;2022-12-08T04:43:07;99795.72;;;2.13;100.00
54854;BME280;40747;49.480;8.658;2022-12-08T04:45:32;99806.91;;;2.27;100.00
54854;BME280;40747;49.480;8.658;2022-12-08T04:47:59;99799.09;;;2.27;100.00
54854;BME280;40747;49.480;8.658;2022-12-08T04:50:25;99800.91;;;2.13;100.00
54854;BME280;40747;49.480;8.658;2022-12-08T04:52:51;99806.97;;;2.18;100.00
54854;BME280;40747;49.480;8.658;2022-12-08T04:55:16;99808.72;;;2.13;100.00
54854;BME280;40747;49.480;8.658;2022-12-08T04:57:42;99792.22;;;2.22;100.00
54854;BME280;40747;49.480;8.658;2022-12-08T05:00:08;99783.59;;;2.13;100.00
54854;BME280;40747;49.480;8.658;2022-12-08T05:02:34;99799.94;;;2.33;100.00
54854;BME280;40747;49.480;8.658;2022-12-08T05:04:59;99798.28;;;2.25;100.00
54854;BME280;40747;49.480;8.658;2022-12-08T05:07:24;99804.38;;;2.21;100.00
54854;BME280;40747;49.480;8.658;2022-12-08T05:09:50;99804.31;;;2.31;100.00
54854;BME280;40747;49.480;8.658;2022-12-08T05:12:15;99811.28;;;2.24;100.00
54854;BME280;40747;49.480;8.658;2022-12-08T05:14:41;99810.38;;;2.29;100.00
54854;BME280;40747;49.480;8.658;2022-12-08T05:17:06;99789.59;;;2.29;100.00
54854;BME280;40747;49.480;8.658;2022-12-08T05:19:31;99805.16;;;2.34;100.00
54854;BME280;40747;49.480;8.658;2022-12-08T05:21:57;99800.03;;;2.20;100.00
54854;BME280;40747;49.480;8.658;2022-12-08T05:24:24;99798.22;;;2.33;100.00
54854;BME280;40747;49.480;8.658;2022-12-08T05:26:49;99788.19;;;1.43;100.00
54854;BME280;40747;49.480;8.658;2022-12-08T05:29:15;99800.28;;;1.15;100.00
54854;BME280;40747;49.480;8.658;2022-12-08T05:31:40;99792.53;;;0.86;100.00
54854;BME280;40747;49.480;8.658;2022-12-08T05:34:05;99794.25;;;0.87;100.00
54854;BME280;40747;49.480;8.658;2022-12-08T05:36:31;99781.28;;;1.02;100.00
54854;BME280;40747;49.480;8.658;2022-12-08T05:38:56;99782.16;;;1.00;100.00
54854;BME280;40747;49.480;8.658;2022-12-08T05:41:22;99796.84;;;1.07;100.00
54854;BME280;40747;49.480;8.658;2022-12-08T05:43:47;99797.72;;;1.10;100.00
54854;BME280;40747;49.480;8.658;2022-12-08T05:46:14;99789.09;;;1.11;100.00
54854;BME280;40747;49.480;8.658;2022-12-08T05:48:40;99792.53;;;1.04;100.00
54854;BME280;40747;49.480;8.658;2022-12-08T05:51:07;99780.44;;;1.02;100.00
54854;BME280;40747;49.480;8.658;2022-12-08T05:53:36;99777.00;;;0.93;100.00
54854;BME280;40747;49.480;8.658;2022-12-08T05:56:01;99787.34;;;1.10;100.00
54854;BME280;40747;49.480;8.658;2022-12-08T05:58:27;99765.75;;;0.91;100.00
54854;BME280;40747;49.480;8.658;2022-12-08T06:00:52;99775.25;;;1.00;100.00
54854;BME280;40747;49.480;8.658;2022-12-08T06:03:18;99767.44;;;1.20;100.00
54854;BME280;40747;49.480;8.658;2022-12-08T06:05:45;99776.91;;;1.41;100.00
54854;BME280;40747;49.480;8.658;2022-12-08T06:08:11;99775.16;;;1.50;100.00
54854;BME280;40747;49.480;8.658;2022-12-08T06:10:38;99780.34;;;1.59;100.00
54854;BME280;40747;49.480;8.658;2022-12-08T06:13:04;99781.13;;;1.86;100.00
54854;BME280;40747;49.480;8.658;2022-12-08T06:15:29;99783.72;;;1.84;100.00
54854;BME280;40747;49.480;8.658;2022-12-08T06:17:55;99783.63;;;2.04;100.00
54854;BME280;40747;49.480;8.658;2022-12-08T06:20:20;99789.69;;;2.08;100.00
54854;BME280;40747;49.480;8.658;2022-12-08T06:22:45;99779.34;;;1.99;100.00
54854;BME280;40747;49.480;8.658;2022-12-08T06:25:11;99790.56;;;2.01;100.00
54854;BME280;40747;49.480;8.658;2022-12-08T06:27:36;99786.25;;;1.96;100.00
54854;BME280;40747;49.480;8.658;2022-12-08T06:30:02;99789.72;;;1.99;100.00
54854;BME280;40747;49.480;8.658;2022-12-08T06:32:27;99799.22;;;2.07;100.00
54854;BME280;40747;49.480;8.658;2022-12-08T06:34:52;99795.69;;;2.24;100.00
54854;BME280;40747;49.480;8.658;2022-12-08T06:37:18;99793.09;;;2.24;100.00
54854;BME280;40747;49.480;8.658;2022-12-08T06:39:43;99793.06;;;2.22;100.00
54854;BME280;40747;49.480;8.658;2022-12-08T06:42:08;99794.81;;;2.26;100.00
54854;BME280;40747;49.480;8.658;2022-12-08T06:44:52;99796.50;;;2.27;100.00
54854;BME280;40747;49.480;8.658;2022-12-08T06:47:20;99792.22;;;2.22;100.00
54854;BME280;40747;49.480;8.658;2022-12-08T06:49:45;99791.47;;;2.01;100.00
54854;BME280;40747;49.480;8.658;2022-12-08T06:52:10;99788.13;;;1.50;100.00
54854;BME280;40747;49.480;8.658;2022-12-08T06:54:36;99797.66;;;1.57;100.00
54854;BME280;40747;49.480;8.658;2022-12-08T06:57:01;99780.41;;;1.11;100.00
54854;BME280;40747;49.480;8.658;2022-12-08T06:59:26;99800.31;;;1.20;100.00
54854;BME280;40747;49.480;8.658;2022-12-08T07:01:51;99791.66;;;0.93;100.00
54854;BME280;40747;49.480;8.658;2022-12-08T07:04:17;99788.22;;;0.85;100.00
54854;BME280;40747;49.480;8.658;2022-12-08T07:06:42;99795.13;;;1.07;100.00
54854;BME280;40747;49.480;8.658;2022-12-08T07:09:08;99796.84;;;1.24;100.00
54854;BME280;40747;49.480;8.658;2022-12-08T07:11:33;99793.38;;;1.11;100.00
54854;BME280;40747;49.480;8.658;2022-12-08T07:13:58;99778.72;;;1.04;100.00
54854;BME280;40747;49.480;8.658;2022-12-08T07:16:23;99799.44;;;1.22;100.00
54854;BME280;40747;49.480;8.658;2022-12-08T07:18:49;99808.09;;;1.20;100.00
54854;BME280;40747;49.480;8.658;2022-12-08T07:21:15;99803.78;;;1.08;100.00
54854;BME280;40747;49.480;8.658;2022-12-08T07:23:41;99794.25;;;0.87;100.00
54854;BME280;40747;49.480;8.658;2022-12-08T07:26:09;99792.53;;;0.98;100.00
54854;BME280;40747;49.480;8.658;2022-12-08T07:28:37;99808.09;;;0.95;100.00
54854;BME280;40747;49.480;8.658;2022-12-08T07:31:04;99779.56;;;0.92;100.00
54854;BME280;40747;49.480;8.658;2022-12-08T07:33:31;99796.00;;;1.22;100.00
54854;BME280;40747;49.480;8.658;2022-12-08T07:36:01;99802.91;;;1.18;100.00
54854;BME280;40747;49.480;8.658;2022-12-08T07:38:27;99802.03;;;1.16;100.00
54854;BME280;40747;49.480;8.658;2022-12-08T07:40:53;99802.03;;;1.16;100.00
54854;BME280;40747;49.480;8.658;2022-12-08T07:43:19;99800.31;;;1.12;100.00
54854;BME280;40747;49.480;8.658;2022-12-08T07:45:45;99795.13;;;1.18;100.00
54854;BME280;40747;49.480;8.658;2022-12-08T07:48:11;99789.06;;;1.19;100.00
54854;BME280;40747;49.480;8.658;2022-12-08T07:50:36;99790.78;;;1.36;100.00
54854;BME280;40747;49.480;8.658;2022-12-08T07:53:02;99782.09;;;1.44;100.00
54854;BME280;40747;49.480;8.658;2022-12-08T07:55:28;99780.41;;;1.28;100.00
54854;BME280;40747;49.480;8.658;2022-12-08T07:57:53;99784.69;;;1.51;100.00
54854;BME280;40747;49.480;8.658;2022-12-08T08:00:19;99781.25;;;1.49;100.00
54854;BME280;40747;49.480;8.658;2022-12-08T08:02:44;99777.78;;;1.51;100.00
54854;BME280;40747;49.480;8.658;2022-12-08T08:05:10;99781.22;;;1.50;100.00
54854;BME280;40747;49.480;8.658;2022-12-08T08:07:40;99786.38;;;1.55;100.00
54854;BME280;40747;49.480;8.658;2022-12-08T08:10:11;99782.06;;;1.69;100.00
54854;BME280;40747;49.480;8.658;2022-12-08T08:12:37;99782.06;;;1.64;100.00
54854;BME280;40747;49.480;8.658;2022-12-08T08:15:05;99784.63;;;1.72;100.00
54854;BME280;40747;49.480;8.658;2022-12-08T08:17:31;99786.34;;;1.73;100.00
54854;BME280;40747;49.480;8.658;2022-12-08T08:19:56;99788.09;;;1.74;100.00
54854;BME280;40747;49.480;8.658;2022-12-08T08:22:23;99789.81;;;1.75;100.00
54854;BME280;40747;49.480;8.658;2022-12-08T08:24:49;99787.22;;;1.75;100.00
54854;BME280;40747;49.480;8.658;2022-12-08T08:27:14;99782.00;;;1.78;100.00
54854;BME280;40747;49.480;8.658;2022-12-08T08:29:39;99787.22;;;1.75;100.00
54854;BME280;40747;49.480;8.658;2022-12-08T08:32:04;99786.34;;;1.76;100.00
54854;BME280;40747;49.480;8.658;2022-12-08T08:34:30;99793.28;;;1.68;100.00
54854;BME280;40747;49.480;8.658;2022-12-08T08:36:55;99792.41;;;1.74;100.00
54854;BME280;40747;49.480;8.658;2022-12-08T08:39:20;99798.44;;;1.82;100.00
54854;BME280;40747;49.480;8.658;2022-12-08T08:41:46;99791.50;;;1.89;100.00
54854;BME280;40747;49.480;8.658;2022-12-08T08:44:13;99790.59;;;1.99;100.00
54854;BME280;40747;49.480;8.658;2022-12-08T08:46:38;99794.88;;;2.12;100.00
54854;BME280;40747;49.480;8.658;2022-12-08T08:49:04;99794.09;;;1.87;100.00
54854;BME280;40747;49.480;8.658;2022-12-08T08:51:29;99794.19;;;1.58;100.00
54854;BME280;40747;49.480;8.658;2022-12-08T08:53:55;99792.50;;;1.47;100.00
54854;BME280;40747;49.480;8.658;2022-12-08T08:56:21;99783.84;;;1.41;100.00
54854;BME280;40747;49.480;8.658;2022-12-08T08:58:47;99786.50;;;1.04;100.00
54854;BME280;40747;49.480;8.658;2022-12-08T09:01:14;99785.59;;;1.29;100.00
54854;BME280;40747;49.480;8.658;2022-12-08T09:03:40;99786.44;;;1.38;100.00
54854;BME280;40747;49.480;8.658;2022-12-08T09:06:05;99787.28;;;1.60;100.00
54854;BME280;40747;49.480;8.658;2022-12-08T09:08:31;99789.00;;;1.53;100.00
54854;BME280;40747;49.480;8.658;2022-12-08T09:10:56;99782.94;;;1.56;100.00
54854;BME280;40747;49.480;8.658;2022-12-08T09:13:22;99788.13;;;1.65;100.00
54854;BME280;40747;49.480;8.658;2022-12-08T09:15:47;99775.16;;;1.50;100.00
54854;BME280;40747;49.480;8.658;2022-12-08T09:18:12;99788.00;;;1.93;100.00
54854;BME280;40747;49.480;8.658;2022-12-08T09:20:38;99774.09;;;2.03;100.00
54854;BME280;40747;49.480;8.658;2022-12-08T09:23:04;99779.22;;;2.26;100.00
54854;BME280;40747;49.480;8.658;2022-12-08T09:25:29;99770.47;;;2.40;100.00
54854;BME280;40747;49.480;8.658;2022-12-08T09:27:54;99775.59;;;2.51;100.00
54854;BME280;40747;49.480;8.658;2022-12-08T09:30:20;99768.59;;;2.60;100.00
54854;BME280;40747;49.480;8.658;2022-12-08T09:32:45;99772.00;;;2.69;100.00
54854;BME280;40747;49.480;8.658;2022-12-08T09:35:10;99762.44;;;2.74;100.00
54854;BME280;40747;49.480;8.658;2022-12-08T09:37:36;99764.16;;;2.76;100.00
54854;BME280;40747;49.480;8.658;2022-12-08T09:40:01;99763.97;;;2.97;100.00
54854;BME280;40747;49.480;8.658;2022-12-08T09:42:43;99752.69;;;3.01;100.00
54854;BME280;40747;49.480;8.658;2022-12-08T09:45:13;99754.31;;;3.09;100.00
54854;BME280;40747;49.480;8.658;2022-12-08T09:47:44;99752.56;;;3.15;100.00
54854;BME280;40747;49.480;8.658;2022-12-08T09:52:52;99745.31;;;3.43;100.00
54854;BME280;40747;49.480;8.658;2022-12-08T09:55:29;99746.88;;;3.61;100.00
54854;BME280;40747;49.480;8.658;2022-12-08T09:58:00;99739.13;;;3.55;100.00
54854;BME280;40747;49.480;8.658;2022-12-08T10:00:27;99737.28;;;3.61;100.00
54854;BME280;40747;49.480;8.658;2022-12-08T10:02:52;99733.06;;;3.51;100.00
54854;BME280;40747;49.480;8.658;2022-12-08T10:05:17;99726.03;;;3.58;100.00
54854;BME280;40747;49.480;8.658;2022-12-08T10:07:47;99731.81;;;3.83;100.00
54854;BME280;40747;49.480;8.658;2022-12-08T10:10:27;99731.81;;;3.85;100.00
54854;BME280;40747;49.480;8.658;2022-12-08T10:16:07;99719.63;;;3.87;100.00
54854;BME280;40747;49.480;8.658;2022-12-08T10:18:36;99719.44;;;4.01;100.00
54854;BME280;40747;49.480;8.658;2022-12-08T10:21:20;99719.28;;;4.12;100.00
54854;BME280;40747;49.480;8.658;2022-12-08T10:23:49;99722.59;;;4.23;100.00
54854;BME280;40747;49.480;8.658;2022-12-08T10:26:17;99717.53;;;4.14;100.00
54854;BME280;40747;49.480;8.658;2022-12-08T10:28:43;99715.88;;;4.06;100.00
54854;BME280;40747;49.480;8.658;2022-12-08T10:31:17;99708.75;;;4.21;100.00
54854;BME280;40747;49.480;8.658;2022-12-08T10:33:43;99703.53;;;4.21;100.00
54854;BME280;40747;49.480;8.658;2022-12-08T10:36:10;99706.03;;;4.29;100.00
54854;BME280;40747;49.480;8.658;2022-12-08T10:38:37;99705.16;;;4.28;100.00
54854;BME280;40747;49.480;8.658;2022-12-08T10:43:47;99692.00;;;4.37;100.00
54854;BME280;40747;49.480;8.658;2022-12-08T10:46:35;99692.97;;;4.30;100.00
54854;BME280;40747;49.480;8.658;2022-12-08T10:51:39;99684.75;;;4.55;100.00
54854;BME280;40747;49.480;8.658;2022-12-08T10:54:25;99683.97;;;4.50;100.00
54854;BME280;40747;49.480;8.658;2022-12-08T10:56:55;99680.81;;;4.29;100.00
54854;BME280;40747;49.480;8.658;2022-12-08T10:59:21;99671.19;;;4.33;100.00
54854;BME280;40747;49.480;8.658;2022-12-08T11:01:51;99679.63;;;4.49;100.00
54854;BME280;40747;49.480;8.658;2022-12-08T11:04:53;99665.44;;;4.65;100.00
54854;BME280;40747;49.480;8.658;2022-12-08T11:07:18;99675.72;;;4.76;100.00
54854;BME280;40747;49.480;8.658;2022-12-08T11:09:47;99670.53;;;4.73;100.00
54854;BME280;40747;49.480;8.658;2022-12-08T11:12:18;99662.84;;;4.10;100.00
54854;BME280;40747;49.480;8.658;2022-12-08T11:17:13;99666.69;;;3.15;100.00
54854;BME280;40747;49.480;8.658;2022-12-08T11:22:38;99652.03;;;3.03;100.00
54854;BME280;40747;49.480;8.658;2022-12-08T11:27:33;99643.47;;;2.91;100.00
54854;BME280;40747;49.480;8.658;2022-12-08T11:30:01;99646.03;;;2.96;100.00
54854;BME280;40747;49.480;8.658;2022-12-08T11:32:27;99633.00;;;2.99;100.00
54854;BME280;40747;49.480;8.658;2022-12-08T11:34:59;99636.16;;;3.29;100.00
54854;BME280;40747;49.480;8.658;2022-12-08T11:37:32;99631.94;;;3.19;100.00
54854;BME280;40747;49.480;8.658;2022-12-08T11:40:04;99644.28;;;3.00;100.00
54854;BME280;40747;49.480;8.658;2022-12-08T11:42:34;99638.28;;;2.93;100.00
54854;BME280;40747;49.480;8.658;2022-12-08T11:45:10;99631.38;;;2.87;100.00
54854;BME280;40747;49.480;8.658;2022-12-08T11:47:42;99627.88;;;2.90;100.00
54854;BME280;40747;49.480;8.658;2022-12-08T11:50:31;99629.69;;;2.83;100.00
54854;BME280;40747;49.480;8.658;2022-12-08T11:53:03;99619.41;;;2.71;100.00
54854;BME280;40747;49.480;8.658;2022-12-08T11:55:48;99613.94;;;2.97;100.00
54854;BME280;40747;49.480;8.658;2022-12-08T11:58:24;99621.34;;;3.31;100.00
54854;BME280;40747;49.480;8.658;2022-12-08T12:00:50;99619.75;;;3.19;100.00
54854;BME280;40747;49.480;8.658;2022-12-08T12:03:38;99615.56;;;3.07;100.00
54854;BME280;40747;49.480;8.658;2022-12-08T12:06:26;99607.88;;;2.98;100.00
54854;BME280;40747;49.480;8.658;2022-12-08T12:09:18;99607.56;;;3.24;100.00
54854;BME280;40747;49.480;8.658;2022-12-08T12:12:38;99608.53;;;3.17;100.00
54854;BME280;40747;49.480;8.658;2022-12-08T12:17:40;99612.66;;;3.32;100.00
54854;BME280;40747;49.480;8.658;2022-12-08T12:20:29;99602.78;;;3.59;100.00
54854;BME280;40747;49.480;8.658;2022-12-08T12:25:25;99592.28;;;3.65;100.00
54854;BME280;40747;49.480;8.658;2022-12-08T12:27:56;99591.22;;;3.79;100.00
54854;BME280;40747;49.480;8.658;2022-12-08T12:30:25;99583.44;;;3.75;100.00
54854;BME280;40747;49.480;8.658;2022-12-08T12:32:57;99582.63;;;3.73;100.00
54854;BME280;40747;49.480;8.658;2022-12-08T12:35:29;99576.44;;;3.79;100.00
54854;BME280;40747;49.480;8.658;2022-12-08T12:38:00;99582.44;;;3.84;100.00
54854;BME280;40747;49.480;8.658;2022-12-08T12:40:35;99583.38;;;3.80;100.00
54854;BME280;40747;49.480;8.658;2022-12-08T12:45:30;99582.66;;;3.70;100.00
54854;BME280;40747;49.480;8.658;2022-12-08T12:50:44;99581.69;;;3.77;100.00
54854;BME280;40747;49.480;8.658;2022-12-08T13:00:47;99573.59;;;3.34;100.00
54854;BME280;40747;49.480;8.658;2022-12-08T13:03:16;99572.81;;;3.27;100.00
54854;BME280;40747;49.480;8.658;2022-12-08T13:05:48;99572.06;;;3.19;100.00
54854;BME280;40747;49.480;8.658;2022-12-08T13:08:21;99583.16;;;3.33;100.00
54854;BME280;40747;49.480;8.658;2022-12-08T13:11:02;99572.44;;;3.55;100.00
54854;BME280;40747;49.480;8.658;2022-12-08T13:13:28;99571.53;;;3.59;100.00
54854;BME280;40747;49.480;8.658;2022-12-08T13:16:04;99567.78;;;3.77;100.00
54854;BME280;40747;49.480;8.658;2022-12-08T13:18:36;99572.91;;;3.83;100.00
54854;BME280;40747;49.480;8.658;2022-12-08T13:26:13;99560.16;;;3.63;100.00
54854;BME280;40747;49.480;8.658;2022-12-08T13:31:48;99564.94;;;3.92;100.00
54854;BME280;40747;49.480;8.658;2022-12-08T13:34:26;99557.59;;;3.61;100.00
54854;BME280;40747;49.480;8.658;2022-12-08T13:39:35;99556.41;;;3.84;100.00
54854;BME280;40747;49.480;8.658;2022-12-08T13:44:42;99557.91;;;3.38;100.00
54854;BME280;40747;49.480;8.658;2022-12-08T13:47:11;99565.28;;;3.72;100.00
54854;BME280;40747;49.480;8.658;2022-12-08T13:49:42;99567.22;;;3.56;100.00
54854;BME280;40747;49.480;8.658;2022-12-08T13:53:26;99563.63;;;3.65;100.00
54854;BME280;40747;49.480;8.658;2022-12-08T13:55:24;99566.19;;;3.67;100.00
54854;BME280;40747;49.480;8.658;2022-12-08T13:57:54;99562.09;;;3.50;100.00
54854;BME280;40747;49.480;8.658;2022-12-08T14:00:22;99562.78;;;3.65;100.00
54854;BME280;40747;49.480;8.658;2022-12-08T14:02:49;99563.56;;;3.70;100.00
54854;BME280;40747;49.480;8.658;2022-12-08T14:05:17;99560.88;;;3.76;100.00
54854;BME280;40747;49.480;8.658;2022-12-08T14:07:46;99561.88;;;3.67;100.00
54854;BME280;40747;49.480;8.658;2022-12-08T14:10:24;99561.94;;;3.61;100.00
54854;BME280;40747;49.480;8.658;2022-12-08T14:12:56;99561.06;;;3.62;100.00